PWSweather.com
Personal Weather Stations
Station Observations
WATERF01
WaterfordIE

WaterfordIE

Lat: 52.2412507, Lon: -7.1414691

Elevation: 65

Station Type: Davis Vantage Vue

www.waterfordweather.com

High Low Average
Temperature 43.5°F6.4°C 34.1°F1.2°C 38.5°F3.6°C
Dew Point 39.4°F4.1°C 31.1°F-0.5°C 35.4°F1.9°C
Winds 15.0 mph 24.1 kmh 2.3 mph 3.7 kmh 9.0 mph W14.5 kmh W
Wind Gusts 26.5 mph42.6 kmh 5.8 mph9.3 kmh 15.0 mph24.1 kmh
Humidity 99% 78% 88%
Pressure 29.53 in1000.0 mb 29.39 in995.3 mb -
Precipitation 0.36 in9.1 mm - -
Hour Temp Dew Point Humidity Winds Wind Gusts Pressure Precip Precip Rate Daily Precip Total
12:00 AM 43.0°F6.1°C 38.5°F3.6°C 84% 8.1 mph W13.0 kmh W 8.1 mph13.0 kmh 29.40 in995.6 mb - 0.00 in0.0 mm 0.00 in0.0 mm
12:10 AM 43.2°F6.2°C 38.7°F3.7°C 84% 12.7 mph WNW20.4 kmh WNW 20.7 mph33.3 kmh 29.41 in995.9 mb - 0.00 in0.0 mm 0.00 in0.0 mm
12:20 AM 42.8°F6.0°C 39.2°F4.0°C 87% 10.4 mph WNW16.7 kmh WNW 25.3 mph40.7 kmh 29.41 in995.9 mb - 0.00 in0.0 mm 0.00 in0.0 mm
12:30 AM 42.9°F6.1°C 38.7°F3.7°C 85% 11.5 mph W18.5 kmh W 23.0 mph37.0 kmh 29.41 in995.9 mb - 0.00 in0.0 mm 0.00 in0.0 mm
12:40 AM 43.0°F6.1°C 38.8°F3.8°C 85% 10.4 mph W16.7 kmh W 15.0 mph24.1 kmh 29.41 in995.9 mb - 0.00 in0.0 mm 0.00 in0.0 mm
12:50 AM 43.0°F6.1°C 38.2°F3.4°C 83% 13.8 mph WNW22.2 kmh WNW 26.5 mph42.6 kmh 29.40 in995.6 mb - 0.00 in0.0 mm 0.00 in0.0 mm
01:00 AM 43.3°F6.3°C 37.5°F3.1°C 80% 8.1 mph WNW13.0 kmh WNW 15.0 mph24.1 kmh 29.41 in995.9 mb - 0.00 in0.0 mm 0.00 in0.0 mm
01:10 AM 43.3°F6.3°C 37.2°F2.9°C 79% 10.4 mph WNW16.7 kmh WNW 19.6 mph31.5 kmh 29.40 in995.6 mb - 0.00 in0.0 mm 0.00 in0.0 mm
01:20 AM 43.5°F6.4°C 37.1°F2.8°C 78% 9.2 mph NW14.8 kmh NW 16.1 mph25.9 kmh 29.41 in995.9 mb - 0.00 in0.0 mm 0.00 in0.0 mm
01:30 AM 43.5°F6.4°C 38.0°F3.3°C 81% 15.0 mph WNW24.1 kmh WNW 20.7 mph33.3 kmh 29.41 in995.9 mb - 0.00 in0.0 mm 0.00 in0.0 mm
01:40 AM 42.5°F5.8°C 38.3°F3.5°C 85% 5.8 mph WNW9.3 kmh WNW 13.8 mph22.2 kmh 29.41 in995.9 mb - 0.00 in0.0 mm 0.00 in0.0 mm
01:50 AM 41.9°F5.5°C 38.0°F3.3°C 86% 5.8 mph W9.3 kmh W 13.8 mph22.2 kmh 29.41 in995.9 mb - 0.00 in0.0 mm 0.00 in0.0 mm
02:00 AM 41.8°F5.4°C 37.3°F2.9°C 84% 5.8 mph WSW9.3 kmh WSW 11.5 mph18.5 kmh 29.41 in995.9 mb - 0.00 in0.0 mm 0.00 in0.0 mm
02:10 AM 42.3°F5.7°C 36.9°F2.7°C 81% 8.1 mph W13.0 kmh W 15.0 mph24.1 kmh 29.41 in995.9 mb - 0.00 in0.0 mm 0.00 in0.0 mm
02:20 AM 42.6°F5.9°C 37.2°F2.9°C 81% 9.2 mph WNW14.8 kmh WNW 19.6 mph31.5 kmh 29.42 in996.3 mb - 0.00 in0.0 mm 0.00 in0.0 mm
02:30 AM 42.3°F5.7°C 38.4°F3.6°C 86% 10.4 mph WNW16.7 kmh WNW 13.8 mph22.2 kmh 29.43 in996.6 mb - 0.00 in0.0 mm 0.00 in0.0 mm
02:40 AM 41.3°F5.2°C 38.6°F3.7°C 90% 5.8 mph W9.3 kmh W 15.0 mph24.1 kmh 29.41 in995.9 mb - 0.01 in0.3 mm 0.01 in0.3 mm
02:50 AM 41.5°F5.3°C 38.5°F3.6°C 89% 9.2 mph WNW14.8 kmh WNW 13.8 mph22.2 kmh 29.42 in996.3 mb - 0.00 in0.0 mm 0.01 in0.3 mm
03:00 AM 41.4°F5.2°C 38.4°F3.6°C 89% 6.9 mph WNW11.1 kmh WNW 8.1 mph13.0 kmh 29.42 in996.3 mb - 0.00 in0.0 mm 0.01 in0.3 mm
03:10 AM 41.0°F5.0°C 39.4°F4.1°C 94% 6.9 mph WNW11.1 kmh WNW 19.6 mph31.5 kmh 29.43 in996.6 mb - 0.02 in0.5 mm 0.03 in0.8 mm
03:20 AM 38.9°F3.8°C 38.7°F3.7°C 99% 9.2 mph WNW14.8 kmh WNW 16.1 mph25.9 kmh 29.44 in997.0 mb - 0.05 in1.3 mm 0.08 in2.0 mm
03:30 AM 38.8°F3.8°C 38.5°F3.6°C 99% 4.6 mph W7.4 kmh W 6.9 mph11.1 kmh 29.43 in996.6 mb - 0.02 in0.5 mm 0.10 in2.5 mm
03:40 AM 38.6°F3.7°C 38.4°F3.6°C 99% 5.8 mph WNW9.3 kmh WNW 8.1 mph13.0 kmh 29.43 in996.6 mb - 0.00 in0.0 mm 0.10 in2.5 mm
03:50 AM 38.3°F3.5°C 38.0°F3.3°C 99% 3.5 mph WNW5.6 kmh WNW 6.9 mph11.1 kmh 29.42 in996.3 mb - 0.00 in0.0 mm 0.10 in2.5 mm
04:00 AM 38.4°F3.6°C 38.2°F3.4°C 99% 8.1 mph WNW13.0 kmh WNW 16.1 mph25.9 kmh 29.43 in996.6 mb - 0.00 in0.0 mm 0.10 in2.5 mm
04:10 AM 38.7°F3.7°C 38.2°F3.4°C 98% 9.2 mph WNW14.8 kmh WNW 12.7 mph20.4 kmh 29.43 in996.6 mb - 0.00 in0.0 mm 0.10 in2.5 mm
04:20 AM 38.8°F3.8°C 38.5°F3.6°C 99% 9.2 mph WNW14.8 kmh WNW 16.1 mph25.9 kmh 29.44 in997.0 mb - 0.00 in0.0 mm 0.10 in2.5 mm
04:30 AM 38.4°F3.6°C 37.6°F3.1°C 97% 10.4 mph WNW16.7 kmh WNW 13.8 mph22.2 kmh 29.43 in996.6 mb - 0.01 in0.3 mm 0.11 in2.8 mm
04:40 AM 37.9°F3.3°C 37.6°F3.1°C 99% 6.9 mph W11.1 kmh W 13.8 mph22.2 kmh 29.44 in997.0 mb - 0.00 in0.0 mm 0.11 in2.8 mm
04:50 AM 38.3°F3.5°C 37.2°F2.9°C 96% 11.5 mph WNW18.5 kmh WNW 19.6 mph31.5 kmh 29.44 in997.0 mb - 0.00 in0.0 mm 0.11 in2.8 mm
05:00 AM 38.9°F3.8°C 37.9°F3.3°C 96% 8.1 mph WNW13.0 kmh WNW 15.0 mph24.1 kmh 29.44 in997.0 mb - 0.00 in0.0 mm 0.11 in2.8 mm
05:10 AM 39.5°F4.2°C 38.2°F3.4°C 95% 6.9 mph W11.1 kmh W 13.8 mph22.2 kmh 29.43 in996.6 mb - 0.00 in0.0 mm 0.11 in2.8 mm
05:20 AM 40.0°F4.4°C 38.4°F3.6°C 94% 5.8 mph W9.3 kmh W 9.2 mph14.8 kmh 29.43 in996.6 mb - 0.00 in0.0 mm 0.11 in2.8 mm
05:30 AM 40.2°F4.6°C 38.1°F3.4°C 92% 5.8 mph WNW9.3 kmh WNW 9.2 mph14.8 kmh 29.43 in996.6 mb - 0.00 in0.0 mm 0.11 in2.8 mm
05:40 AM 40.2°F4.6°C 37.8°F3.2°C 91% 6.9 mph WNW11.1 kmh WNW 16.1 mph25.9 kmh 29.43 in996.6 mb - 0.00 in0.0 mm 0.11 in2.8 mm
05:50 AM 40.9°F4.9°C 36.8°F2.7°C 85% 11.5 mph WNW18.5 kmh WNW 23.0 mph37.0 kmh 29.44 in997.0 mb - 0.00 in0.0 mm 0.11 in2.8 mm
06:00 AM 41.2°F5.1°C 37.6°F3.1°C 87% 9.2 mph W14.8 kmh W 21.9 mph35.2 kmh 29.45 in997.3 mb - 0.00 in0.0 mm 0.11 in2.8 mm
06:10 AM 39.7°F4.3°C 38.7°F3.7°C 96% 8.1 mph WNW13.0 kmh WNW 13.8 mph22.2 kmh 29.45 in997.3 mb - 0.02 in0.5 mm 0.13 in3.3 mm
06:20 AM 37.9°F3.3°C 37.4°F3.0°C 98% 8.1 mph W13.0 kmh W 18.4 mph29.6 kmh 29.45 in997.3 mb - 0.01 in0.3 mm 0.13 in3.3 mm
06:30 AM 37.8°F3.2°C 37.0°F2.8°C 97% 6.9 mph W11.1 kmh W 16.1 mph25.9 kmh 29.45 in997.3 mb - 0.00 in0.0 mm 0.13 in3.3 mm
06:40 AM 38.3°F3.5°C 37.5°F3.1°C 97% 6.9 mph W11.1 kmh W 12.7 mph20.4 kmh 29.45 in997.3 mb - 0.00 in0.0 mm 0.13 in3.3 mm
06:50 AM 37.8°F3.2°C 36.5°F2.5°C 95% 10.4 mph WNW16.7 kmh WNW 23.0 mph37.0 kmh 29.46 in997.6 mb - 0.00 in0.0 mm 0.13 in3.3 mm
07:00 AM 38.3°F3.5°C 36.5°F2.5°C 93% 5.8 mph W9.3 kmh W 13.8 mph22.2 kmh 29.46 in997.6 mb - 0.00 in0.0 mm 0.13 in3.3 mm
07:10 AM 39.4°F4.1°C 36.2°F2.3°C 88% 11.5 mph W18.5 kmh W 16.1 mph25.9 kmh 29.46 in997.6 mb - 0.00 in0.0 mm 0.13 in3.3 mm
07:20 AM 40.1°F4.5°C 37.1°F2.8°C 89% 9.2 mph WNW14.8 kmh WNW 16.1 mph25.9 kmh 29.47 in998.0 mb - 0.00 in0.0 mm 0.13 in3.3 mm
07:30 AM 40.0°F4.4°C 36.7°F2.6°C 88% 13.8 mph W22.2 kmh W 25.3 mph40.7 kmh 29.46 in997.6 mb - 0.00 in0.0 mm 0.13 in3.3 mm
07:40 AM 39.4°F4.1°C 37.0°F2.8°C 91% 5.8 mph WSW9.3 kmh WSW 11.5 mph18.5 kmh 29.46 in997.6 mb - 0.00 in0.0 mm 0.13 in3.3 mm
07:50 AM 39.1°F3.9°C 36.7°F2.6°C 91% 10.4 mph WNW16.7 kmh WNW 18.4 mph29.6 kmh 29.46 in997.6 mb - 0.00 in0.0 mm 0.13 in3.3 mm
08:00 AM 39.9°F4.4°C 37.0°F2.8°C 89% 9.2 mph W14.8 kmh W 16.1 mph25.9 kmh 29.47 in998.0 mb - 0.00 in0.0 mm 0.13 in3.3 mm
08:10 AM 40.0°F4.4°C 36.7°F2.6°C 88% 8.1 mph WNW13.0 kmh WNW 13.8 mph22.2 kmh 29.46 in997.6 mb - 0.00 in0.0 mm 0.13 in3.3 mm
08:20 AM 40.0°F4.4°C 36.4°F2.4°C 87% 8.1 mph WNW13.0 kmh WNW 15.0 mph24.1 kmh 29.46 in997.6 mb - 0.00 in0.0 mm 0.13 in3.3 mm
08:30 AM 40.3°F4.6°C 35.9°F2.2°C 84% 8.1 mph W13.0 kmh W 13.8 mph22.2 kmh 29.46 in997.6 mb - 0.00 in0.0 mm 0.13 in3.3 mm
08:40 AM 40.3°F4.6°C 35.9°F2.2°C 84% 10.4 mph WNW16.7 kmh WNW 19.6 mph31.5 kmh 29.47 in998.0 mb - 0.00 in0.0 mm 0.13 in3.3 mm
08:50 AM 40.6°F4.8°C 36.5°F2.5°C 85% 6.9 mph W11.1 kmh W 11.5 mph18.5 kmh 29.46 in997.6 mb - 0.00 in0.0 mm 0.13 in3.3 mm
09:00 AM 39.9°F4.4°C 36.6°F2.6°C 88% 3.5 mph W5.6 kmh W 8.1 mph13.0 kmh 29.47 in998.0 mb - 0.00 in0.0 mm 0.13 in3.3 mm
09:10 AM 39.7°F4.3°C 35.0°F1.7°C 83% 10.4 mph W16.7 kmh W 13.8 mph22.2 kmh 29.47 in998.0 mb - 0.00 in0.0 mm 0.13 in3.3 mm
09:20 AM 40.2°F4.6°C 35.2°F1.8°C 82% 11.5 mph WNW18.5 kmh WNW 16.1 mph25.9 kmh 29.47 in998.0 mb - 0.00 in0.0 mm 0.13 in3.3 mm
09:30 AM 39.8°F4.3°C 36.0°F2.2°C 86% 9.2 mph W14.8 kmh W 13.8 mph22.2 kmh 29.48 in998.3 mb - 0.00 in0.0 mm 0.13 in3.3 mm
09:40 AM 38.8°F3.8°C 36.6°F2.6°C 92% 10.4 mph W16.7 kmh W 15.0 mph24.1 kmh 29.47 in998.0 mb - 0.01 in0.3 mm 0.14 in3.6 mm
09:50 AM 38.3°F3.5°C 36.7°F2.6°C 94% 8.1 mph WNW13.0 kmh WNW 9.2 mph14.8 kmh 29.47 in998.0 mb - 0.00 in0.0 mm 0.14 in3.6 mm
10:00 AM 38.5°F3.6°C 36.6°F2.6°C 93% 5.8 mph W9.3 kmh W 12.7 mph20.4 kmh 29.48 in998.3 mb - 0.00 in0.0 mm 0.14 in3.6 mm
10:10 AM 39.4°F4.1°C 37.0°F2.8°C 91% 5.8 mph NW9.3 kmh NW 11.5 mph18.5 kmh 29.48 in998.3 mb - 0.00 in0.0 mm 0.14 in3.6 mm
10:20 AM 40.3°F4.6°C 37.9°F3.3°C 91% 2.3 mph W3.7 kmh W 5.8 mph9.3 kmh 29.48 in998.3 mb - 0.00 in0.0 mm 0.14 in3.6 mm
10:30 AM 40.9°F4.9°C 37.3°F2.9°C 87% 9.2 mph WNW14.8 kmh WNW 15.0 mph24.1 kmh 29.47 in998.0 mb - 0.00 in0.0 mm 0.14 in3.6 mm
10:40 AM 41.1°F5.1°C 37.2°F2.9°C 86% 6.9 mph W11.1 kmh W 13.8 mph22.2 kmh 29.47 in998.0 mb - 0.00 in0.0 mm 0.14 in3.6 mm
10:50 AM 41.1°F5.1°C 37.0°F2.8°C 85% 5.8 mph W9.3 kmh W 8.1 mph13.0 kmh 29.47 in998.0 mb - 0.00 in0.0 mm 0.14 in3.6 mm
11:00 AM 41.1°F5.1°C 37.8°F3.2°C 88% 8.1 mph W13.0 kmh W 13.8 mph22.2 kmh 29.47 in998.0 mb - 0.00 in0.0 mm 0.14 in3.6 mm
11:10 AM 40.5°F4.7°C 38.4°F3.6°C 92% 5.8 mph WSW9.3 kmh WSW 9.2 mph14.8 kmh 29.46 in997.6 mb - 0.00 in0.0 mm 0.14 in3.6 mm
11:20 AM 40.6°F4.8°C 37.3°F2.9°C 88% 12.7 mph W20.4 kmh W 23.0 mph37.0 kmh 29.47 in998.0 mb - 0.00 in0.0 mm 0.14 in3.6 mm
11:30 AM 39.6°F4.2°C 37.4°F3.0°C 92% 8.1 mph WSW13.0 kmh WSW 13.8 mph22.2 kmh 29.47 in998.0 mb - 0.00 in0.0 mm 0.14 in3.6 mm
11:40 AM 39.6°F4.2°C 37.2°F2.9°C 91% 8.1 mph WNW13.0 kmh WNW 13.8 mph22.2 kmh 29.46 in997.6 mb - 0.00 in0.0 mm 0.14 in3.6 mm
11:50 AM 40.2°F4.6°C 36.7°F2.6°C 87% 9.2 mph W14.8 kmh W 15.0 mph24.1 kmh 29.46 in997.6 mb - 0.00 in0.0 mm 0.14 in3.6 mm
12:00 PM 40.9°F4.9°C 37.0°F2.8°C 86% 11.5 mph SW18.5 kmh SW 25.3 mph40.7 kmh 29.46 in997.6 mb - 0.00 in0.0 mm 0.14 in3.6 mm
12:10 PM 39.4°F4.1°C 38.1°F3.4°C 95% 9.2 mph WNW14.8 kmh WNW 15.0 mph24.1 kmh 29.45 in997.3 mb - 0.02 in0.5 mm 0.16 in4.1 mm
12:20 PM 39.2°F4.0°C 37.6°F3.1°C 94% 8.1 mph W13.0 kmh W 11.5 mph18.5 kmh 29.45 in997.3 mb - 0.00 in0.0 mm 0.16 in4.1 mm
12:30 PM 39.8°F4.3°C 37.9°F3.3°C 93% 5.8 mph W9.3 kmh W 11.5 mph18.5 kmh 29.45 in997.3 mb - 0.00 in0.0 mm 0.16 in4.1 mm
12:40 PM 39.9°F4.4°C 37.8°F3.2°C 92% 9.2 mph W14.8 kmh W 13.8 mph22.2 kmh 29.45 in997.3 mb - 0.00 in0.0 mm 0.16 in4.1 mm
12:50 PM 39.1°F3.9°C 37.7°F3.2°C 95% 10.4 mph W16.7 kmh W 16.1 mph25.9 kmh 29.45 in997.3 mb - 0.01 in0.3 mm 0.17 in4.3 mm
01:00 PM 38.4°F3.6°C 34.0°F1.1°C 84% 12.7 mph WNW20.4 kmh WNW 16.1 mph25.9 kmh 29.44 in997.0 mb - 0.00 in0.0 mm 0.17 in4.3 mm
01:10 PM 38.6°F3.7°C 34.2°F1.2°C 84% 12.7 mph W20.4 kmh W 16.1 mph25.9 kmh 29.43 in996.6 mb - 0.00 in0.0 mm 0.17 in4.3 mm
01:20 PM 38.8°F3.8°C 34.7°F1.5°C 85% 6.9 mph W11.1 kmh W 13.8 mph22.2 kmh 29.43 in996.6 mb - 0.00 in0.0 mm 0.17 in4.3 mm
01:30 PM 38.7°F3.7°C 34.6°F1.4°C 85% 9.2 mph W14.8 kmh W 15.0 mph24.1 kmh 29.43 in996.6 mb - 0.00 in0.0 mm 0.17 in4.3 mm
01:40 PM 38.7°F3.7°C 34.3°F1.3°C 84% 8.1 mph W13.0 kmh W 13.8 mph22.2 kmh 29.43 in996.6 mb - 0.01 in0.3 mm 0.18 in4.6 mm
01:50 PM 37.1°F2.8°C 33.6°F0.9°C 87% 8.1 mph W13.0 kmh W 12.7 mph20.4 kmh 29.42 in996.3 mb - 0.04 in1.0 mm 0.21 in5.3 mm
02:00 PM 37.0°F2.8°C 34.0°F1.1°C 89% 5.8 mph WNW9.3 kmh WNW 11.5 mph18.5 kmh 29.41 in995.9 mb - 0.01 in0.3 mm 0.21 in5.3 mm
02:10 PM 37.5°F3.1°C 34.6°F1.4°C 89% 5.8 mph WNW9.3 kmh WNW 11.5 mph18.5 kmh 29.41 in995.9 mb - 0.00 in0.0 mm 0.21 in5.3 mm
02:20 PM 37.7°F3.2°C 34.8°F1.6°C 89% 6.9 mph WNW11.1 kmh WNW 11.5 mph18.5 kmh 29.43 in996.6 mb - 0.00 in0.0 mm 0.21 in5.3 mm
02:30 PM 37.6°F3.1°C 34.7°F1.5°C 89% 6.9 mph WNW11.1 kmh WNW 18.4 mph29.6 kmh 29.41 in995.9 mb - 0.00 in0.0 mm 0.21 in5.3 mm
02:40 PM 37.6°F3.1°C 34.7°F1.5°C 89% 9.2 mph WNW14.8 kmh WNW 16.1 mph25.9 kmh 29.40 in995.6 mb - 0.00 in0.0 mm 0.21 in5.3 mm
02:50 PM 37.6°F3.1°C 34.7°F1.5°C 89% 13.8 mph W22.2 kmh W 19.6 mph31.5 kmh 29.39 in995.3 mb - 0.00 in0.0 mm 0.21 in5.3 mm
03:00 PM 38.9°F3.8°C 35.9°F2.2°C 89% 9.2 mph WNW14.8 kmh WNW 12.7 mph20.4 kmh 29.40 in995.6 mb - 0.00 in0.0 mm 0.21 in5.3 mm
03:10 PM 39.0°F3.9°C 35.7°F2.1°C 88% 11.5 mph W18.5 kmh W 19.6 mph31.5 kmh 29.41 in995.9 mb - 0.00 in0.0 mm 0.21 in5.3 mm
03:20 PM 38.6°F3.7°C 34.5°F1.4°C 85% 13.8 mph W22.2 kmh W 23.0 mph37.0 kmh 29.41 in995.9 mb - 0.02 in0.5 mm 0.23 in5.8 mm
03:30 PM 36.1°F2.3°C 32.9°F0.5°C 88% 11.5 mph W18.5 kmh W 20.7 mph33.3 kmh 29.41 in995.9 mb - 0.04 in1.0 mm 0.26 in6.6 mm
03:40 PM 34.9°F1.6°C 32.0°F0.0°C 89% 6.9 mph W11.1 kmh W 12.7 mph20.4 kmh 29.40 in995.6 mb - 0.02 in0.5 mm 0.28 in7.1 mm
03:50 PM 35.3°F1.8°C 32.4°F0.2°C 89% 6.9 mph WNW11.1 kmh WNW 11.5 mph18.5 kmh 29.40 in995.6 mb - 0.01 in0.3 mm 0.29 in7.4 mm
04:00 PM 35.6°F2.0°C 33.0°F0.6°C 90% 10.4 mph WNW16.7 kmh WNW 19.6 mph31.5 kmh 29.40 in995.6 mb - 0.00 in0.0 mm 0.29 in7.4 mm
04:10 PM 35.8°F2.1°C 33.1°F0.6°C 90% 11.5 mph WNW18.5 kmh WNW 19.6 mph31.5 kmh 29.40 in995.6 mb - 0.00 in0.0 mm 0.29 in7.4 mm
04:20 PM 35.9°F2.2°C 33.3°F0.7°C 90% 8.1 mph WNW13.0 kmh WNW 16.1 mph25.9 kmh 29.40 in995.6 mb - 0.01 in0.3 mm 0.30 in7.6 mm
04:30 PM 36.4°F2.4°C 33.8°F1.0°C 90% 9.2 mph W14.8 kmh W 19.6 mph31.5 kmh 29.40 in995.6 mb - 0.00 in0.0 mm 0.30 in7.6 mm
04:40 PM 37.3°F2.9°C 34.6°F1.4°C 90% 12.7 mph WNW20.4 kmh WNW 20.7 mph33.3 kmh 29.41 in995.9 mb - 0.00 in0.0 mm 0.30 in7.6 mm
04:50 PM 35.4°F1.9°C 32.5°F0.3°C 89% 6.9 mph W11.1 kmh W 12.7 mph20.4 kmh 29.41 in995.9 mb - 0.01 in0.3 mm 0.31 in7.9 mm
05:00 PM 35.4°F1.9°C 32.8°F0.4°C 90% 6.9 mph W11.1 kmh W 11.5 mph18.5 kmh 29.41 in995.9 mb - 0.01 in0.3 mm 0.32 in8.1 mm
05:10 PM 35.4°F1.9°C 32.8°F0.4°C 90% 8.1 mph W13.0 kmh W 15.0 mph24.1 kmh 29.41 in995.9 mb - 0.00 in0.0 mm 0.32 in8.1 mm
05:20 PM 35.5°F1.9°C 32.8°F0.4°C 90% 6.9 mph WNW11.1 kmh WNW 11.5 mph18.5 kmh 29.41 in995.9 mb - 0.00 in0.0 mm 0.32 in8.1 mm
05:30 PM 35.5°F1.9°C 32.9°F0.5°C 90% 9.2 mph NW14.8 kmh NW 18.4 mph29.6 kmh 29.41 in995.9 mb - 0.00 in0.0 mm 0.32 in8.1 mm
05:40 PM 35.6°F2.0°C 33.0°F0.6°C 90% 6.9 mph W11.1 kmh W 11.5 mph18.5 kmh 29.41 in995.9 mb - 0.00 in0.0 mm 0.32 in8.1 mm
05:50 PM 35.9°F2.2°C 33.2°F0.7°C 90% 6.9 mph WNW11.1 kmh WNW 12.7 mph20.4 kmh 29.41 in995.9 mb - 0.00 in0.0 mm 0.32 in8.1 mm
06:00 PM 36.4°F2.4°C 33.8°F1.0°C 90% 6.9 mph WNW11.1 kmh WNW 11.5 mph18.5 kmh 29.41 in995.9 mb - 0.00 in0.0 mm 0.32 in8.1 mm
06:10 PM 36.7°F2.6°C 33.8°F1.0°C 89% 6.9 mph WNW11.1 kmh WNW 11.5 mph18.5 kmh 29.41 in995.9 mb - 0.00 in0.0 mm 0.32 in8.1 mm
06:20 PM 37.3°F2.9°C 33.8°F1.0°C 87% 8.1 mph W13.0 kmh W 11.5 mph18.5 kmh 29.41 in995.9 mb - 0.00 in0.0 mm 0.32 in8.1 mm
06:30 PM 37.6°F3.1°C 32.9°F0.5°C 83% 9.2 mph WNW14.8 kmh WNW 13.8 mph22.2 kmh 29.41 in995.9 mb - 0.00 in0.0 mm 0.32 in8.1 mm
06:40 PM 37.7°F3.2°C 32.1°F0.1°C 80% 9.2 mph W14.8 kmh W 13.8 mph22.2 kmh 29.41 in995.9 mb - 0.00 in0.0 mm 0.32 in8.1 mm
06:50 PM 37.8°F3.2°C 31.5°F-0.3°C 78% 8.1 mph WNW13.0 kmh WNW 13.8 mph22.2 kmh 29.42 in996.3 mb - 0.00 in0.0 mm 0.32 in8.1 mm
07:00 PM 37.6°F3.1°C 32.0°F0.0°C 80% 5.8 mph WNW9.3 kmh WNW 13.8 mph22.2 kmh 29.43 in996.6 mb - 0.00 in0.0 mm 0.32 in8.1 mm
07:10 PM 36.9°F2.7°C 32.3°F0.2°C 83% 9.2 mph WNW14.8 kmh WNW 13.8 mph22.2 kmh 29.45 in997.3 mb - 0.00 in0.0 mm 0.32 in8.1 mm
07:20 PM 35.7°F2.1°C 32.0°F0.0°C 86% 11.5 mph WNW18.5 kmh WNW 21.9 mph35.2 kmh 29.44 in997.0 mb - 0.01 in0.3 mm 0.33 in8.4 mm
07:30 PM 35.1°F1.7°C 31.9°F-0.1°C 88% 8.1 mph WNW13.0 kmh WNW 13.8 mph22.2 kmh 29.44 in997.0 mb - 0.00 in0.0 mm 0.33 in8.4 mm
07:40 PM 35.1°F1.7°C 32.2°F0.1°C 89% 8.1 mph W13.0 kmh W 11.5 mph18.5 kmh 29.44 in997.0 mb - 0.01 in0.3 mm 0.34 in8.6 mm
07:50 PM 35.2°F1.8°C 32.3°F0.2°C 89% 6.9 mph W11.1 kmh W 12.7 mph20.4 kmh 29.43 in996.6 mb - 0.00 in0.0 mm 0.34 in8.6 mm
08:00 PM 35.6°F2.0°C 32.7°F0.4°C 89% 8.1 mph W13.0 kmh W 13.8 mph22.2 kmh 29.44 in997.0 mb - 0.00 in0.0 mm 0.34 in8.6 mm
08:10 PM 36.6°F2.6°C 33.7°F0.9°C 89% 6.9 mph W11.1 kmh W 13.8 mph22.2 kmh 29.44 in997.0 mb - 0.00 in0.0 mm 0.34 in8.6 mm
08:20 PM 36.4°F2.4°C 32.9°F0.5°C 87% 9.2 mph W14.8 kmh W 13.8 mph22.2 kmh 29.45 in997.3 mb - 0.00 in0.0 mm 0.34 in8.6 mm
08:30 PM 35.9°F2.2°C 32.4°F0.2°C 87% 6.9 mph W11.1 kmh W 13.8 mph22.2 kmh 29.45 in997.3 mb - 0.00 in0.0 mm 0.34 in8.6 mm
08:40 PM 35.6°F2.0°C 32.1°F0.1°C 87% 5.8 mph W9.3 kmh W 11.5 mph18.5 kmh 29.45 in997.3 mb - 0.00 in0.0 mm 0.34 in8.6 mm
08:50 PM 36.3°F2.4°C 32.3°F0.2°C 85% 11.5 mph W18.5 kmh W 21.9 mph35.2 kmh 29.45 in997.3 mb - 0.00 in0.0 mm 0.34 in8.6 mm
09:00 PM 37.1°F2.8°C 32.4°F0.2°C 83% 9.2 mph W14.8 kmh W 16.1 mph25.9 kmh 29.46 in997.6 mb - 0.00 in0.0 mm 0.34 in8.6 mm
09:10 PM 36.4°F2.4°C 31.8°F-0.1°C 83% 10.4 mph WNW16.7 kmh WNW 20.7 mph33.3 kmh 29.45 in997.3 mb - 0.00 in0.0 mm 0.34 in8.6 mm
09:20 PM 36.4°F2.4°C 31.1°F-0.5°C 81% 11.5 mph WNW18.5 kmh WNW 20.7 mph33.3 kmh 29.46 in997.6 mb - 0.00 in0.0 mm 0.34 in8.6 mm
09:30 PM 36.4°F2.4°C 31.4°F-0.3°C 82% 8.1 mph WNW13.0 kmh WNW 19.6 mph31.5 kmh 29.47 in998.0 mb - 0.00 in0.0 mm 0.34 in8.6 mm
09:40 PM 36.5°F2.5°C 31.5°F-0.3°C 82% 10.4 mph WNW16.7 kmh WNW 21.9 mph35.2 kmh 29.49 in998.6 mb - 0.00 in0.0 mm 0.34 in8.6 mm
09:50 PM 34.9°F1.6°C 31.1°F-0.5°C 86% 3.5 mph WNW5.6 kmh WNW 8.1 mph13.0 kmh 29.48 in998.3 mb - 0.00 in0.0 mm 0.34 in8.6 mm
10:00 PM 34.6°F1.4°C 31.4°F-0.3°C 88% 9.2 mph WNW14.8 kmh WNW 15.0 mph24.1 kmh 29.50 in999.0 mb - 0.00 in0.0 mm 0.34 in8.6 mm
10:10 PM 34.4°F1.3°C 31.5°F-0.3°C 89% 6.9 mph WNW11.1 kmh WNW 13.8 mph22.2 kmh 29.51 in999.3 mb - 0.00 in0.0 mm 0.34 in8.6 mm
10:20 PM 34.1°F1.2°C 31.2°F-0.4°C 89% 9.2 mph WNW14.8 kmh WNW 16.1 mph25.9 kmh 29.51 in999.3 mb - 0.01 in0.3 mm 0.35 in8.9 mm
10:30 PM 34.2°F1.2°C 31.3°F-0.4°C 89% 8.1 mph WNW13.0 kmh WNW 15.0 mph24.1 kmh 29.49 in998.6 mb - 0.00 in0.0 mm 0.35 in8.9 mm
10:40 PM 34.5°F1.4°C 31.9°F-0.1°C 90% 9.2 mph W14.8 kmh W 18.4 mph29.6 kmh 29.49 in998.6 mb - 0.01 in0.3 mm 0.36 in9.1 mm
10:50 PM 34.5°F1.4°C 31.9°F-0.1°C 90% 9.2 mph WNW14.8 kmh WNW 15.0 mph24.1 kmh 29.49 in998.6 mb - 0.00 in0.0 mm 0.36 in9.1 mm
11:00 PM 35.1°F1.7°C 32.5°F0.3°C 90% 8.1 mph WNW13.0 kmh WNW 16.1 mph25.9 kmh 29.50 in999.0 mb - 0.00 in0.0 mm 0.36 in9.1 mm
11:10 PM 36.7°F2.6°C 32.0°F0.0°C 83% 9.2 mph WNW14.8 kmh WNW 16.1 mph25.9 kmh 29.50 in999.0 mb - 0.00 in0.0 mm 0.36 in9.1 mm
11:20 PM 37.1°F2.8°C 31.8°F-0.1°C 81% 11.5 mph W18.5 kmh W 16.1 mph25.9 kmh 29.52 in999.7 mb - 0.00 in0.0 mm 0.36 in9.1 mm
11:30 PM 37.0°F2.8°C 32.0°F0.0°C 82% 9.2 mph W14.8 kmh W 11.5 mph18.5 kmh 29.52 in999.7 mb - 0.00 in0.0 mm 0.36 in9.1 mm
11:40 PM 36.4°F2.4°C 32.0°F0.0°C 84% 5.8 mph WNW9.3 kmh WNW 11.5 mph18.5 kmh 29.53 in1000.0 mb - 0.00 in0.0 mm 0.36 in9.1 mm
11:50 PM 36.0°F2.2°C 31.6°F-0.2°C 84% 8.1 mph W13.0 kmh W 11.5 mph18.5 kmh 29.53 in1000.0 mb - 0.00 in0.0 mm 0.36 in9.1 mm